createdAt,value
2023-01-05T00:02:42.385Z,6.00
2023-01-05T00:06:46.348Z,7.43
2023-01-05T00:11:06.473Z,6.47
2023-01-05T00:15:28.725Z,6.03
2023-01-05T00:19:50.396Z,6.00
2023-01-05T00:23:53.419Z,5.43
2023-01-05T00:27:58.404Z,6.93
2023-01-05T00:32:02.469Z,6.23
2023-01-05T00:36:12.211Z,6.53
2023-01-05T00:40:17.907Z,6.93
2023-01-05T00:44:20.917Z,7.40
2023-01-05T00:48:24.079Z,6.53
2023-01-05T00:52:28.774Z,6.47
2023-01-05T00:56:31.801Z,6.17
2023-01-05T01:00:35.060Z,6.47
2023-01-05T01:04:38.109Z,6.63
2023-01-05T01:08:42.434Z,6.90
2023-01-05T01:12:45.284Z,6.03
2023-01-05T01:16:48.473Z,7.10
2023-01-05T01:20:51.904Z,6.47
2023-01-05T01:24:56.307Z,6.20
2023-01-05T01:28:59.177Z,5.83
2023-01-05T01:33:02.136Z,7.07
2023-01-05T01:37:05.122Z,6.73
2023-01-05T01:41:15.326Z,6.90
2023-01-05T01:45:21.618Z,6.03
2023-01-05T01:49:24.585Z,7.03
2023-01-05T01:53:30.892Z,6.87
2023-01-05T01:57:36.448Z,7.13
2023-01-05T02:01:39.548Z,6.80
2023-01-05T02:05:42.715Z,5.60
2023-01-05T02:09:46.940Z,6.23
2023-01-05T02:14:04.566Z,6.37
2023-01-05T02:18:30.920Z,6.37
2023-01-05T02:23:14.501Z,5.63
2023-01-05T02:27:48.663Z,6.77
2023-01-05T02:31:59.238Z,5.43
2023-01-05T02:36:11.085Z,6.27
2023-01-05T02:40:19.934Z,5.87
2023-01-05T02:44:23.694Z,5.27
2023-01-05T02:48:33.130Z,6.00
2023-01-05T02:52:41.506Z,6.37
2023-01-05T02:56:51.476Z,5.43
2023-01-05T03:00:59.903Z,5.53
2023-01-05T03:05:09.367Z,5.10
2023-01-05T03:09:12.709Z,5.77
2023-01-05T03:13:33.592Z,5.10
2023-01-05T03:17:44.254Z,6.33
2023-01-05T03:22:08.362Z,6.67
2023-01-05T03:26:33.878Z,5.23
2023-01-05T03:31:02.990Z,6.90
2023-01-05T03:35:30.580Z,6.90
2023-01-05T03:39:38.856Z,6.73
2023-01-05T03:43:43.885Z,6.53
2023-01-05T03:47:46.720Z,6.83
2023-01-05T03:51:49.710Z,5.70
2023-01-05T03:55:54.195Z,5.93
2023-01-05T03:59:57.630Z,6.87
2023-01-05T04:04:01.265Z,5.90
2023-01-05T04:08:04.785Z,6.37
2023-01-05T04:12:12.206Z,6.30
2023-01-05T04:16:19.782Z,5.70
2023-01-05T04:20:24.851Z,6.20
2023-01-05T04:24:29.129Z,6.57
2023-01-05T04:28:33.885Z,7.37
2023-01-05T04:32:38.247Z,6.30
2023-01-05T04:36:41.836Z,6.03
2023-01-05T04:40:51.245Z,6.17
2023-01-05T04:44:57.071Z,6.13
2023-01-05T04:49:00.265Z,6.27
2023-01-05T04:53:03.269Z,6.73
2023-01-05T04:57:06.604Z,7.47
2023-01-05T05:01:11.766Z,6.80
2023-01-05T05:05:17.089Z,6.73
2023-01-05T05:09:20.322Z,6.97
2023-01-05T05:13:24.965Z,7.50
2023-01-05T05:17:30.634Z,6.53
2023-01-05T05:21:34.427Z,7.30
2023-01-05T05:25:38.001Z,7.00
2023-01-05T05:29:41.284Z,7.13
2023-01-05T05:33:46.011Z,7.20
2023-01-05T05:37:54.419Z,6.40
2023-01-05T05:41:59.185Z,6.43
2023-01-05T05:46:02.217Z,6.27
2023-01-05T05:50:07.714Z,6.67
2023-01-05T05:54:10.685Z,7.70
2023-01-05T05:58:13.712Z,7.60
2023-01-05T06:02:18.135Z,6.67
2023-01-05T06:06:22.696Z,8.10
2023-01-05T06:10:25.677Z,8.07
2023-01-05T06:14:28.881Z,6.87
2023-01-05T06:18:31.681Z,6.90
2023-01-05T06:22:36.141Z,6.80
2023-01-05T06:26:39.226Z,6.70
2023-01-05T06:30:42.224Z,6.83
2023-01-05T06:34:45.209Z,7.27
2023-01-05T06:38:49.905Z,7.27
2023-01-05T06:42:53.325Z,6.90
2023-01-05T06:46:56.402Z,7.60
2023-01-05T06:50:59.337Z,7.67
2023-01-05T06:55:03.735Z,8.43
2023-01-05T06:59:06.596Z,7.97
2023-01-05T07:03:13.389Z,6.70
2023-01-05T07:07:17.219Z,7.30
2023-01-05T07:11:21.615Z,7.40
2023-01-05T07:15:24.768Z,6.93
2023-01-05T07:19:27.718Z,6.70
2023-01-05T07:23:31.159Z,6.90
2023-01-05T07:27:35.704Z,6.70
2023-01-05T07:31:39.941Z,7.53
2023-01-05T07:35:43.052Z,6.60
2023-01-05T07:39:46.972Z,6.70
2023-01-05T07:43:51.733Z,7.10
2023-01-05T07:47:55.205Z,5.87
2023-01-05T07:51:58.387Z,6.03
2023-01-05T07:56:02.648Z,6.10
2023-01-05T08:00:08.871Z,6.33
2023-01-05T08:04:17.606Z,6.60
2023-01-05T08:08:24.311Z,6.70
2023-01-05T08:12:28.826Z,6.13
2023-01-05T08:16:34.518Z,5.97
2023-01-05T08:20:37.362Z,5.93
2023-01-05T08:24:40.169Z,6.33
2023-01-05T08:28:44.377Z,7.53
2023-01-05T08:32:48.818Z,6.87
2023-01-05T08:36:52.319Z,6.87
2023-01-05T08:40:59.550Z,6.60
2023-01-05T08:45:02.626Z,6.53
2023-01-05T08:49:09.389Z,7.00
2023-01-05T08:53:12.370Z,6.60
2023-01-05T08:57:15.204Z,6.93
2023-01-05T09:01:20.951Z,8.33
2023-01-05T09:05:25.329Z,7.57
2023-01-05T09:09:28.233Z,6.90
2023-01-05T09:13:31.201Z,8.03
2023-01-05T09:17:35.968Z,9.93
2023-01-05T09:21:40.516Z,9.93
2023-01-05T09:25:43.541Z,8.53
2023-01-05T09:29:46.555Z,8.33
2023-01-05T09:33:49.758Z,8.77
2023-01-05T09:37:54.203Z,8.30
2023-01-05T09:41:59.927Z,8.23
2023-01-05T09:46:05.447Z,8.67
2023-01-05T09:50:18.349Z,8.90
2023-01-05T09:54:25.333Z,8.33
2023-01-05T09:58:34.728Z,8.47
2023-01-05T10:02:47.926Z,8.33
2023-01-05T10:06:54.727Z,7.83
2023-01-05T10:11:21.088Z,7.60
2023-01-05T10:15:24.158Z,7.93
2023-01-05T10:19:27.405Z,9.37
2023-01-05T10:23:51.034Z,7.83
2023-01-05T10:28:07.617Z,8.83
2023-01-05T10:32:23.737Z,7.20
2023-01-05T10:41:18.003Z,8.40
2023-01-05T10:45:23.200Z,7.73
2023-01-05T10:49:30.549Z,10.27
2023-01-05T10:53:37.387Z,7.33
2023-01-05T10:57:42.284Z,8.50
2023-01-05T11:01:50.090Z,8.03
2023-01-05T11:05:53.098Z,8.33
2023-01-05T11:09:56.216Z,8.67
2023-01-05T11:14:00.234Z,7.97
2023-01-05T11:18:05.261Z,7.73
2023-01-05T11:22:29.674Z,7.00
2023-01-05T11:26:35.519Z,8.13
2023-01-05T11:30:41.588Z,7.57
2023-01-05T11:34:47.770Z,8.57
2023-01-05T11:38:54.726Z,8.17
2023-01-05T11:42:58.687Z,7.47
2023-01-05T11:47:01.787Z,8.23
2023-01-05T11:51:06.500Z,7.13
2023-01-05T11:55:31.954Z,7.57
2023-01-05T11:59:38.780Z,7.67
2023-01-05T12:04:04.089Z,7.90
2023-01-05T12:08:14.672Z,7.93
2023-01-05T12:12:35.478Z,7.77
2023-01-05T12:16:46.909Z,8.03
2023-01-05T12:20:57.286Z,8.07
2023-01-05T12:25:12.377Z,7.53
2023-01-05T12:34:45.037Z,7.00
2023-01-05T12:39:08.000Z,7.37
2023-01-05T12:43:18.775Z,7.53
2023-01-05T12:47:45.706Z,7.40
2023-01-05T12:51:54.365Z,7.97
2023-01-05T12:56:00.670Z,7.83
2023-01-05T13:00:12.215Z,6.77
2023-01-05T13:04:34.275Z,6.87
2023-01-05T13:08:45.923Z,7.73
2023-01-05T13:12:51.621Z,8.07
2023-01-05T13:17:01.910Z,7.33
2023-01-05T13:21:12.703Z,7.07
2023-01-05T13:25:20.293Z,6.60
2023-01-05T13:29:27.232Z,7.67
2023-01-05T13:33:48.295Z,7.23
2023-01-05T13:38:33.188Z,6.90
2023-01-05T13:43:01.003Z,6.17
2023-01-05T13:47:27.020Z,7.23
2023-01-05T13:51:54.788Z,7.60
2023-01-05T13:56:02.130Z,7.83
2023-01-05T14:00:12.250Z,6.87
2023-01-05T14:04:20.769Z,7.00
2023-01-05T14:08:28.823Z,6.93
2023-01-05T14:12:49.534Z,6.60
2023-01-05T14:16:54.564Z,7.13
2023-01-05T14:20:57.451Z,9.00
2023-01-05T14:25:36.597Z,8.63
2023-01-05T14:30:21.144Z,9.17
2023-01-05T14:34:27.184Z,9.63
2023-01-05T14:38:30.862Z,8.53
2023-01-05T14:42:39.680Z,7.50
2023-01-05T14:46:48.754Z,8.70
2023-01-05T14:51:09.599Z,7.67
2023-01-05T14:55:37.818Z,7.10
2023-01-05T14:59:44.232Z,8.33
2023-01-05T15:03:52.087Z,7.67
2023-01-05T15:08:07.989Z,8.63
2023-01-05T15:12:35.915Z,7.73
2023-01-05T15:17:00.824Z,9.83
2023-01-05T15:21:36.779Z,9.67
2023-01-05T15:26:02.768Z,9.03
2023-01-05T15:30:25.455Z,9.30
2023-01-05T15:34:38.167Z,8.80
2023-01-05T15:38:46.502Z,11.83
2023-01-05T15:43:02.442Z,13.27
2023-01-05T15:47:12.248Z,14.67
2023-01-05T15:51:26.643Z,16.43
2023-01-05T15:55:31.543Z,16.87
2023-01-05T15:59:39.892Z,22.47
2023-01-05T16:03:44.372Z,15.50
2023-01-05T16:07:54.747Z,11.77
2023-01-05T16:12:01.231Z,13.10
2023-01-05T16:16:12.904Z,9.90
2023-01-05T16:20:21.986Z,10.00
2023-01-05T16:24:32.992Z,10.97
2023-01-05T16:28:35.824Z,12.33
2023-01-05T16:32:41.756Z,11.03
2023-01-05T16:37:00.398Z,11.00
2023-01-05T16:41:23.689Z,12.53
2023-01-05T16:45:29.696Z,11.80
2023-01-05T16:49:43.590Z,10.70
2023-01-05T16:53:52.173Z,12.30
2023-01-05T16:57:57.121Z,11.60
2023-01-05T17:02:00.002Z,24.13
2023-01-05T17:06:03.861Z,14.90
2023-01-05T17:10:08.641Z,13.87
2023-01-05T17:14:14.249Z,12.60
2023-01-05T17:18:18.946Z,11.73
2023-01-05T17:22:21.775Z,12.20
2023-01-05T17:26:28.480Z,10.77
2023-01-05T17:30:32.601Z,11.30
2023-01-05T17:34:36.330Z,10.73
2023-01-05T17:38:40.738Z,12.80
2023-01-05T17:42:43.540Z,12.27
2023-01-05T17:46:49.255Z,27.50
2023-01-05T17:50:54.212Z,16.87
2023-01-05T17:54:57.263Z,13.50
2023-01-05T17:59:00.017Z,13.07
2023-01-05T18:03:04.373Z,13.83
2023-01-05T18:11:16.434Z,14.50
2023-01-05T18:15:20.575Z,14.30
2023-01-05T18:19:25.161Z,14.63
2023-01-05T18:23:27.923Z,17.80
2023-01-05T18:27:35.324Z,18.43
2023-01-05T18:31:40.188Z,17.37
2023-01-05T18:35:46.025Z,23.43
2023-01-05T18:39:48.853Z,31.43
2023-01-05T18:43:51.937Z,23.77
2023-01-05T18:47:58.069Z,18.00
2023-01-05T18:52:02.301Z,17.37
2023-01-05T18:56:07.153Z,18.20
2023-01-05T19:00:10.897Z,19.77
2023-01-05T19:04:15.663Z,19.47
2023-01-05T19:08:19.864Z,16.97
2023-01-05T19:12:22.897Z,17.47
2023-01-05T19:16:27.592Z,19.57
2023-01-05T19:20:31.603Z,16.43
2023-01-05T19:24:36.215Z,14.83
2023-01-05T19:28:41.038Z,16.73
2023-01-05T19:32:43.832Z,16.40
2023-01-05T19:36:47.176Z,20.83
2023-01-05T19:40:51.311Z,15.63
2023-01-05T19:44:54.014Z,17.23
2023-01-05T19:48:59.691Z,14.33
2023-01-05T19:53:03.134Z,13.43
2023-01-05T19:57:07.368Z,14.17
2023-01-05T20:01:12.166Z,13.53
2023-01-05T20:05:15.072Z,14.33
2023-01-05T20:09:19.823Z,16.93
2023-01-05T20:13:24.111Z,15.03
2023-01-05T20:17:27.276Z,17.20
2023-01-05T20:21:32.232Z,14.23
2023-01-05T20:25:34.946Z,15.00
2023-01-05T20:29:40.434Z,15.63
2023-01-05T20:33:43.178Z,16.37
2023-01-05T20:37:45.949Z,18.83
2023-01-05T20:41:50.772Z,16.83
2023-01-05T20:45:54.891Z,18.57
2023-01-05T20:49:57.607Z,18.00
2023-01-05T20:54:02.376Z,18.23
2023-01-05T20:58:05.263Z,21.40
2023-01-05T21:02:22.349Z,19.77
2023-01-05T21:06:27.872Z,19.93
2023-01-05T21:10:31.066Z,18.53
2023-01-05T21:14:33.823Z,18.57
2023-01-05T21:18:38.001Z,19.23
2023-01-05T21:22:40.782Z,19.53
2023-01-05T21:26:43.828Z,21.07
2023-01-05T21:30:46.940Z,18.73
2023-01-05T21:34:51.097Z,19.63
2023-01-05T21:39:01.570Z,22.10
2023-01-05T21:43:05.947Z,20.00
2023-01-05T21:47:09.083Z,19.43
2023-01-05T21:51:30.617Z,20.47
2023-01-05T21:55:50.890Z,21.80
2023-01-05T21:59:54.104Z,20.63
2023-01-05T22:03:57.775Z,20.37
2023-01-05T22:08:02.012Z,20.90
2023-01-05T22:12:07.144Z,25.50
2023-01-05T22:16:10.681Z,20.37
2023-01-05T22:20:14.700Z,21.23
2023-01-05T22:24:19.224Z,19.43
2023-01-05T22:28:22.013Z,20.10
2023-01-05T22:32:24.812Z,20.40
2023-01-05T22:36:29.266Z,20.30
2023-01-05T22:40:33.502Z,23.07
2023-01-05T22:44:36.344Z,19.03
2023-01-05T22:48:41.149Z,18.23
2023-01-05T22:52:43.914Z,20.90
2023-01-05T22:56:48.032Z,15.10
2023-01-05T23:00:50.808Z,15.97
2023-01-05T23:04:53.547Z,15.10
2023-01-05T23:08:57.318Z,14.10
2023-01-05T23:13:01.446Z,12.80
2023-01-05T23:17:04.361Z,12.57
2023-01-05T23:21:14.690Z,12.93
2023-01-05T23:25:17.650Z,11.80
2023-01-05T23:29:22.015Z,13.10
2023-01-05T23:33:26.997Z,13.13
2023-01-05T23:37:30.476Z,10.43
2023-01-05T23:41:33.218Z,10.80
2023-01-05T23:45:37.292Z,10.97
2023-01-05T23:49:40.036Z,8.03
2023-01-05T23:53:43.510Z,7.87
2023-01-05T23:57:46.244Z,6.43
